createdAt,value
2022-10-26T00:01:15.705Z,56.94
2022-10-26T00:06:21.612Z,56.38
2022-10-26T00:11:23.629Z,56.52
2022-10-26T00:16:27.073Z,56.92
2022-10-26T00:21:29.037Z,56.55
2022-10-26T00:26:30.911Z,57.00
2022-10-26T00:31:33.162Z,56.79
2022-10-26T00:36:35.129Z,56.77
2022-10-26T00:41:37.134Z,57.63
2022-10-26T00:46:39.201Z,57.56
2022-10-26T00:51:46.302Z,57.17
2022-10-26T00:56:50.170Z,57.03
2022-10-26T01:01:52.681Z,56.76
2022-10-26T01:06:54.743Z,57.45
2022-10-26T01:11:56.688Z,57.31
2022-10-26T01:17:07.803Z,57.17
2022-10-26T01:22:23.956Z,56.73
2022-10-26T01:27:28.970Z,57.05
2022-10-26T01:32:51.070Z,56.77
2022-10-26T01:38:18.960Z,57.43
2022-10-26T01:43:21.175Z,57.47
2022-10-26T01:48:25.572Z,57.13
2022-10-26T01:53:28.794Z,57.18
2022-10-26T01:58:50.036Z,57.02
2022-10-26T02:04:12.036Z,57.30
2022-10-26T02:09:35.181Z,57.07
2022-10-26T02:14:46.188Z,56.33
2022-10-26T02:19:52.917Z,57.77
2022-10-26T02:24:56.569Z,57.85
2022-10-26T02:29:59.550Z,58.23
2022-10-26T02:35:02.338Z,58.14
2022-10-26T02:40:08.475Z,58.66
2022-10-26T02:45:12.832Z,59.10
2022-10-26T02:50:14.795Z,58.56
2022-10-26T02:55:24.251Z,58.28
2022-10-26T03:00:26.297Z,58.75
2022-10-26T03:05:29.272Z,59.12
2022-10-26T03:10:32.851Z,58.82
2022-10-26T03:15:34.796Z,58.60
2022-10-26T03:20:36.682Z,59.14
2022-10-26T03:25:38.591Z,58.68
2022-10-26T03:30:40.555Z,59.11
2022-10-26T03:35:42.468Z,58.30
2022-10-26T03:40:44.464Z,59.04
2022-10-26T03:45:46.333Z,58.51
2022-10-26T03:50:48.232Z,58.19
2022-10-26T03:55:50.238Z,58.63
2022-10-26T04:00:52.180Z,57.88
2022-10-26T04:05:54.092Z,58.15
2022-10-26T04:10:56.801Z,58.19
2022-10-26T04:16:00.717Z,58.38
2022-10-26T04:21:02.603Z,58.54
2022-10-26T04:26:05.382Z,58.21
2022-10-26T04:31:07.249Z,58.07
2022-10-26T04:36:09.281Z,57.66
2022-10-26T04:41:11.219Z,58.92
2022-10-26T04:46:16.707Z,58.31
2022-10-26T04:51:18.892Z,57.87
2022-10-26T04:56:20.800Z,57.37
2022-10-26T05:01:22.874Z,56.99
2022-10-26T05:06:24.902Z,56.20
2022-10-26T05:11:26.891Z,56.78
2022-10-26T05:16:28.879Z,55.97
2022-10-26T05:21:31.250Z,56.67
2022-10-26T05:26:33.222Z,56.61
2022-10-26T05:31:35.156Z,56.13
2022-10-26T05:36:37.112Z,56.33
2022-10-26T05:41:38.993Z,55.92
2022-10-26T05:46:40.941Z,55.81
2022-10-26T05:51:42.879Z,55.97
2022-10-26T05:56:44.919Z,56.27
2022-10-26T06:01:46.939Z,55.65
2022-10-26T06:06:53.225Z,56.05
2022-10-26T06:11:55.457Z,55.72
2022-10-26T06:17:03.404Z,56.07
2022-10-26T06:22:25.546Z,55.63
2022-10-26T06:27:27.405Z,55.63
2022-10-26T06:32:30.053Z,55.52
2022-10-26T06:37:32.348Z,54.91
2022-10-26T06:42:34.356Z,54.72
2022-10-26T06:47:43.253Z,54.25
2022-10-26T06:52:48.877Z,53.45
2022-10-26T06:57:51.134Z,53.77
2022-10-26T07:02:53.939Z,52.89
2022-10-26T07:07:56.682Z,51.77
2022-10-26T07:12:58.598Z,51.37
2022-10-26T07:18:00.500Z,49.90
2022-10-26T07:23:02.673Z,49.96
2022-10-26T07:28:04.774Z,49.00
2022-10-26T07:33:08.451Z,48.36
2022-10-26T07:38:12.277Z,49.03
2022-10-26T07:43:14.374Z,48.55
2022-10-26T07:48:16.289Z,46.50
2022-10-26T07:53:18.310Z,47.05
2022-10-26T07:58:23.669Z,47.80
2022-10-26T08:03:25.521Z,47.65
2022-10-26T08:08:27.523Z,47.94
2022-10-26T08:13:29.535Z,46.96
2022-10-26T08:18:31.789Z,47.24
2022-10-26T08:23:33.877Z,46.99
2022-10-26T08:28:35.777Z,46.71
2022-10-26T08:33:38.147Z,46.09
2022-10-26T08:38:40.559Z,46.75
2022-10-26T08:43:47.433Z,46.29
2022-10-26T08:48:56.281Z,46.22
2022-10-26T08:54:04.103Z,45.37
2022-10-26T08:59:12.402Z,44.41
2022-10-26T09:04:14.316Z,45.05
2022-10-26T09:09:18.926Z,45.70
2022-10-26T09:14:23.909Z,45.12
2022-10-26T09:19:25.790Z,45.69
2022-10-26T09:24:34.764Z,46.17
2022-10-26T09:29:43.344Z,44.71
2022-10-26T09:34:52.955Z,45.00
2022-10-26T09:39:59.348Z,43.39
2022-10-26T09:45:05.584Z,44.03
2022-10-26T09:50:17.111Z,42.74
2022-10-26T09:55:21.062Z,42.65
2022-10-26T10:00:24.757Z,42.57
2022-10-26T10:11:17.701Z,40.70
2022-10-26T10:16:23.786Z,40.79
2022-10-26T10:21:39.489Z,40.99
2022-10-26T10:26:59.827Z,42.09
2022-10-26T10:32:02.821Z,40.53
2022-10-26T10:37:05.391Z,41.21
2022-10-26T10:42:18.796Z,41.66
2022-10-26T10:47:24.976Z,41.51
2022-10-26T10:52:32.209Z,41.67
2022-10-26T10:57:34.090Z,42.13
2022-10-26T11:02:48.160Z,41.82
2022-10-26T11:08:10.392Z,42.10
2022-10-26T11:13:29.701Z,41.55
2022-10-26T11:18:36.101Z,41.91
2022-10-26T11:23:43.762Z,41.75
2022-10-26T11:28:54.516Z,41.86
2022-10-26T11:34:16.665Z,41.80
2022-10-26T11:39:41.648Z,42.33
2022-10-26T11:44:51.951Z,42.00
2022-10-26T11:50:06.608Z,42.89
2022-10-26T11:55:10.555Z,42.36
2022-10-26T12:00:17.337Z,42.96
2022-10-26T12:05:20.678Z,43.23
2022-10-26T12:10:49.019Z,43.67
2022-10-26T12:16:03.534Z,43.74
2022-10-26T12:21:07.924Z,43.25
2022-10-26T12:26:24.940Z,43.58
2022-10-26T12:31:33.515Z,44.26
2022-10-26T12:36:48.082Z,44.82
2022-10-26T12:41:55.982Z,44.95
2022-10-26T12:46:57.915Z,45.32
2022-10-26T12:51:59.843Z,44.30
2022-10-26T12:57:07.759Z,44.43
2022-10-26T13:02:15.559Z,44.91
2022-10-26T13:07:20.623Z,45.43
2022-10-26T13:12:22.726Z,46.22
2022-10-26T13:17:26.035Z,46.02
2022-10-26T13:22:28.902Z,46.44
2022-10-26T13:27:33.875Z,45.97
2022-10-26T13:32:37.152Z,46.79
2022-10-26T13:37:45.005Z,47.47
2022-10-26T13:42:50.620Z,46.88
2022-10-26T13:47:56.375Z,47.58
2022-10-26T13:53:05.912Z,48.39
2022-10-26T13:58:28.730Z,48.77
2022-10-26T14:03:30.706Z,48.92
2022-10-26T14:08:32.687Z,48.93
2022-10-26T14:13:38.031Z,49.29
2022-10-26T14:18:43.763Z,49.37
2022-10-26T14:23:45.826Z,49.69
2022-10-26T14:28:50.589Z,49.51
2022-10-26T14:33:53.190Z,50.86
2022-10-26T14:38:58.154Z,50.66
2022-10-26T14:44:00.410Z,51.24
2022-10-26T14:49:03.424Z,50.40
2022-10-26T14:54:05.555Z,51.38
2022-10-26T14:59:20.982Z,51.11
2022-10-26T15:04:33.336Z,51.19
2022-10-26T15:09:43.476Z,51.83
2022-10-26T15:14:45.571Z,51.68
2022-10-26T15:19:47.601Z,52.71
2022-10-26T15:24:54.822Z,52.62
2022-10-26T15:30:12.033Z,52.82
2022-10-26T15:35:20.223Z,52.24
2022-10-26T15:40:22.930Z,52.99
2022-10-26T15:45:34.135Z,53.02
2022-10-26T15:50:37.816Z,52.71
2022-10-26T15:55:42.480Z,52.52
2022-10-26T16:00:44.542Z,52.56
2022-10-26T16:05:46.534Z,52.54
2022-10-26T16:10:48.469Z,52.22
2022-10-26T16:15:50.422Z,52.44
2022-10-26T16:20:52.366Z,52.52
2022-10-26T16:25:54.401Z,52.46
2022-10-26T16:31:00.452Z,53.00
2022-10-26T16:36:02.871Z,52.65
2022-10-26T16:41:04.918Z,53.39
2022-10-26T16:46:14.871Z,53.22
2022-10-26T16:51:18.398Z,53.08
2022-10-26T16:56:25.295Z,52.56
2022-10-26T17:01:27.364Z,52.86
2022-10-26T17:06:29.483Z,52.52
2022-10-26T17:11:31.396Z,52.73
2022-10-26T17:16:35.071Z,52.43
2022-10-26T17:21:37.179Z,52.87
2022-10-26T17:26:39.714Z,53.33
2022-10-26T17:31:41.622Z,52.96
2022-10-26T17:36:43.629Z,52.64
2022-10-26T17:41:45.550Z,53.38
2022-10-26T17:46:47.603Z,53.71
2022-10-26T17:51:49.527Z,53.97
2022-10-26T17:56:51.639Z,53.05
2022-10-26T18:01:53.667Z,53.24
2022-10-26T18:06:57.503Z,54.09
2022-10-26T18:11:59.410Z,53.56
2022-10-26T18:17:01.842Z,53.49
2022-10-26T18:22:08.826Z,53.56
2022-10-26T18:27:10.996Z,53.53
2022-10-26T18:32:13.079Z,53.79
2022-10-26T18:37:15.136Z,53.91
2022-10-26T18:42:17.043Z,53.99
2022-10-26T18:47:18.936Z,54.25
2022-10-26T18:52:23.856Z,53.99
2022-10-26T18:57:27.199Z,53.91
2022-10-26T19:02:38.861Z,54.07
2022-10-26T19:07:40.852Z,53.94
2022-10-26T19:12:43.171Z,53.61
2022-10-26T19:17:45.516Z,53.60
2022-10-26T19:22:47.919Z,54.27
2022-10-26T19:27:52.728Z,53.78
2022-10-26T19:32:55.603Z,54.55
2022-10-26T19:37:57.577Z,54.08
2022-10-26T19:42:59.463Z,53.96
2022-10-26T19:48:01.356Z,53.57
2022-10-26T19:53:03.580Z,53.51
2022-10-26T19:58:06.551Z,53.52
2022-10-26T20:03:10.979Z,53.53
2022-10-26T20:08:12.930Z,53.42
2022-10-26T20:13:14.949Z,53.24
2022-10-26T20:18:17.310Z,53.25
2022-10-26T20:23:19.277Z,53.38
2022-10-26T20:28:22.503Z,53.23
2022-10-26T20:33:24.520Z,53.01
2022-10-26T20:38:26.831Z,52.97
2022-10-26T20:43:29.064Z,52.79
2022-10-26T20:48:31.206Z,52.78
2022-10-26T20:53:43.069Z,52.97
2022-10-26T20:58:51.042Z,52.77
2022-10-26T21:03:54.026Z,52.44
2022-10-26T21:08:56.659Z,52.13
2022-10-26T21:14:00.747Z,52.21
2022-10-26T21:19:05.114Z,52.04
2022-10-26T21:24:07.881Z,52.06
2022-10-26T21:29:10.276Z,51.95
2022-10-26T21:34:12.163Z,52.05
2022-10-26T21:39:14.048Z,51.92
2022-10-26T21:44:32.790Z,51.82
2022-10-26T21:49:38.296Z,52.01
2022-10-26T21:54:40.245Z,51.72
2022-10-26T21:59:42.927Z,51.68
2022-10-26T22:04:44.806Z,51.94
2022-10-26T22:10:00.757Z,51.90
2022-10-26T22:15:08.776Z,51.95
2022-10-26T22:20:11.413Z,51.65
2022-10-26T22:25:13.419Z,51.55
2022-10-26T22:30:15.321Z,51.62
2022-10-26T22:35:29.053Z,51.95
2022-10-26T22:40:31.536Z,51.92
2022-10-26T22:45:33.550Z,51.94
2022-10-26T22:50:37.312Z,52.22
2022-10-26T22:55:41.066Z,51.92
2022-10-26T23:00:43.381Z,52.22
2022-10-26T23:05:48.683Z,52.15
2022-10-26T23:10:50.588Z,51.90
2022-10-26T23:15:52.556Z,52.19
2022-10-26T23:20:54.608Z,52.19
2022-10-26T23:26:06.065Z,52.14
2022-10-26T23:31:08.550Z,51.89
2022-10-26T23:36:10.635Z,52.07
2022-10-26T23:41:13.119Z,52.34
2022-10-26T23:46:15.386Z,52.21
2022-10-26T23:51:17.341Z,52.00
2022-10-26T23:56:19.289Z,51.73
